Time;durP1;ratioP1;P1;durP2;ratioP2;P2;SDS_P1;SDS_P2;PMS_P1;PMS_P2;Temp;Humidity;BMP_temperature;BMP_pressure;BME280_temperature;BME280_humidity;BME280_pressure;Samples;Min_cycle;Max_cycle;Signal;HPM_P1;HPM_P2
2023/08/06 00:02:01;;;;;;;6.47;5.10;;;;;;;;;;5073906;28;20032;-60
2023/08/06 00:04:27;;;;;;;7.18;5.50;;;;;;;;;;5074178;28;20033;-60
2023/08/06 00:06:53;;;;;;;6.88;6.18;;;;;;;;;;5073810;28;20474;-60
2023/08/06 00:09:19;;;;;;;6.22;5.63;;;;;;;;;;5074129;28;20108;-60
2023/08/06 00:11:46;;;;;;;6.82;5.85;;;;;;;;;;5074016;28;20048;-60
2023/08/06 00:14:15;;;;;;;5.78;5.18;;;;;;;;;;5074288;28;20508;-60
2023/08/06 00:16:41;;;;;;;6.75;5.88;;;;;;;;;;5073631;28;20028;-60
2023/08/06 00:19:06;;;;;;;9.95;6.07;;;;;;;;;;5073480;28;20016;-60
2023/08/06 00:21:32;;;;;;;7.60;6.28;;;;;;;;;;5073965;28;20100;-60
2023/08/06 00:23:58;;;;;;;6.93;6.22;;;;;;;;;;5073928;28;20082;-60
2023/08/06 00:26:24;;;;;;;7.82;6.32;;;;;;;;;;5073653;28;20028;-60
2023/08/06 00:28:50;;;;;;;8.07;7.22;;;;;;;;;;5074062;28;20031;-60
2023/08/06 00:31:16;;;;;;;8.05;7.13;;;;;;;;;;5073186;28;20028;-60
2023/08/06 00:33:42;;;;;;;7.85;7.05;;;;;;;;;;5074257;28;20031;-60
2023/08/06 00:36:08;;;;;;;9.73;8.75;;;;;;;;;;5073128;28;20073;-59
2023/08/06 00:38:34;;;;;;;9.20;7.82;;;;;;;;;;5074036;28;20108;-60
2023/08/06 00:41:00;;;;;;;10.80;8.52;;;;;;;;;;5073422;28;20519;-60
2023/08/06 00:43:26;;;;;;;9.38;8.18;;;;;;;;;;5073358;28;20485;-60
2023/08/06 00:45:52;;;;;;;10.75;8.23;;;;;;;;;;5073970;28;20435;-60
2023/08/06 00:48:18;;;;;;;11.95;9.73;;;;;;;;;;5073113;28;20036;-60
2023/08/06 00:50:44;;;;;;;7.15;6.45;;;;;;;;;;5073911;28;20025;-60
2023/08/06 00:53:09;;;;;;;6.00;4.70;;;;;;;;;;5056099;28;20454;-60
2023/08/06 00:55:36;;;;;;;5.03;3.95;;;;;;;;;;5056181;28;20443;-60
2023/08/06 00:58:02;;;;;;;4.32;3.13;;;;;;;;;;5073999;28;20047;-59
2023/08/06 01:00:28;;;;;;;3.95;2.95;;;;;;;;;;5077744;28;20024;-60
2023/08/06 01:02:54;;;;;;;3.28;2.60;;;;;;;;;;5077326;28;20028;-60
2023/08/06 01:05:20;;;;;;;3.67;2.38;;;;;;;;;;5077331;28;20557;-60
2023/08/06 01:07:46;;;;;;;3.10;2.17;;;;;;;;;;5077689;28;20036;-60
2023/08/06 01:10:12;;;;;;;3.47;2.35;;;;;;;;;;5077829;28;20033;-60
2023/08/06 01:12:48;;;;;;;3.42;2.45;;;;;;;;;;5077234;28;20416;-60
2023/08/06 01:15:22;;;;;;;4.82;2.40;;;;;;;;;;5076889;28;20017;-60
2023/08/06 01:17:48;;;;;;;2.75;1.88;;;;;;;;;;5077088;28;20078;-60
2023/08/06 01:20:14;;;;;;;3.35;2.17;;;;;;;;;;5077086;28;20112;-60
2023/08/06 01:22:40;;;;;;;4.55;2.55;;;;;;;;;;5077039;28;20120;-60
2023/08/06 01:25:07;;;;;;;2.50;1.65;;;;;;;;;;5077249;28;20025;-60
2023/08/06 01:27:42;;;;;;;3.28;2.58;;;;;;;;;;5076551;28;20478;-60
2023/08/06 01:30:13;;;;;;;3.67;2.80;;;;;;;;;;5077365;28;20025;-60
2023/08/06 01:32:43;;;;;;;3.85;2.70;;;;;;;;;;5076801;28;20021;-60
2023/08/06 01:35:10;;;;;;;3.17;2.53;;;;;;;;;;5076701;28;20462;-60
2023/08/06 01:37:36;;;;;;;3.38;2.50;;;;;;;;;;5077304;28;20097;-60
2023/08/06 01:40:06;;;;;;;3.20;2.03;;;;;;;;;;5076666;28;20024;-60
2023/08/06 01:42:32;;;;;;;3.58;2.60;;;;;;;;;;5076641;28;20017;-60
2023/08/06 01:44:57;;;;;;;3.35;2.58;;;;;;;;;;5076231;28;20554;-60
2023/08/06 01:47:23;;;;;;;3.63;2.42;;;;;;;;;;5076728;28;20028;-60
2023/08/06 01:49:49;;;;;;;3.30;2.47;;;;;;;;;;5076820;28;20032;-60
2023/08/06 01:52:15;;;;;;;4.68;2.85;;;;;;;;;;5076453;28;20024;-60
2023/08/06 01:54:41;;;;;;;3.00;2.25;;;;;;;;;;5076942;28;20036;-60
2023/08/06 01:57:07;;;;;;;6.68;2.83;;;;;;;;;;5076060;28;20051;-60
2023/08/06 01:59:33;;;;;;;3.35;2.83;;;;;;;;;;5076590;28;20455;-60
2023/08/06 02:01:59;;;;;;;3.67;2.63;;;;;;;;;;5076209;28;20032;-60
2023/08/06 02:04:25;;;;;;;3.08;2.00;;;;;;;;;;5076305;28;20025;-60
2023/08/06 02:06:51;;;;;;;2.70;2.22;;;;;;;;;;5076196;28;20036;-60
2023/08/06 02:09:17;;;;;;;3.60;2.50;;;;;;;;;;5075987;28;20482;-60
2023/08/06 02:11:43;;;;;;;2.92;2.22;;;;;;;;;;5075917;28;20023;-60
2023/08/06 02:14:09;;;;;;;3.35;2.28;;;;;;;;;;5076053;28;20024;-60
2023/08/06 02:16:35;;;;;;;3.80;2.90;;;;;;;;;;5075665;28;20463;-60
2023/08/06 02:19:01;;;;;;;3.28;2.67;;;;;;;;;;5076307;28;20032;-60
2023/08/06 02:21:26;;;;;;;3.28;2.70;;;;;;;;;;5075959;28;20195;-60
2023/08/06 02:23:52;;;;;;;3.53;2.83;;;;;;;;;;5076320;28;20024;-60
2023/08/06 02:26:18;;;;;;;3.47;2.53;;;;;;;;;;5075908;28;20032;-60
2023/08/06 02:28:44;;;;;;;4.53;2.20;;;;;;;;;;5076214;28;20059;-60
2023/08/06 02:31:10;;;;;;;2.75;2.28;;;;;;;;;;5076561;28;20405;-60
2023/08/06 02:33:36;;;;;;;3.65;2.45;;;;;;;;;;5075360;28;20470;-60
2023/08/06 02:36:05;;;;;;;3.70;2.88;;;;;;;;;;5076310;28;20040;-60
2023/08/06 02:38:32;;;;;;;2.50;1.92;;;;;;;;;;5075900;28;20028;-60
2023/08/06 02:40:58;;;;;;;2.67;2.22;;;;;;;;;;5075615;28;20025;-60
2023/08/06 02:43:23;;;;;;;3.00;1.92;;;;;;;;;;5076042;28;20028;-60
2023/08/06 02:45:49;;;;;;;2.85;1.90;;;;;;;;;;5075474;28;20394;-60
2023/08/06 02:48:18;;;;;;;2.13;1.73;;;;;;;;;;5075947;28;20029;-60
2023/08/06 02:50:44;;;;;;;6.22;2.40;;;;;;;;;;5075357;28;20467;-60
2023/08/06 02:53:10;;;;;;;2.60;1.75;;;;;;;;;;5075244;28;20039;-60
2023/08/06 02:55:36;;;;;;;2.83;2.15;;;;;;;;;;5075288;28;20028;-60
2023/08/06 02:58:02;;;;;;;3.33;1.90;;;;;;;;;;5075634;28;20029;-60
2023/08/06 03:00:28;;;;;;;2.70;1.88;;;;;;;;;;5076064;28;20446;-60
2023/08/06 03:02:55;;;;;;;3.15;1.65;;;;;;;;;;5075126;28;20417;-60
2023/08/06 03:05:21;;;;;;;2.53;1.83;;;;;;;;;;5075648;28;20043;-60
2023/08/06 03:07:46;;;;;;;2.60;2.03;;;;;;;;;;5075813;28;20545;-60
2023/08/06 03:10:13;;;;;;;2.53;1.65;;;;;;;;;;5075553;28;20451;-60
2023/08/06 03:12:39;;;;;;;2.45;1.50;;;;;;;;;;5074925;28;20116;-59
2023/08/06 03:15:05;;;;;;;2.30;1.48;;;;;;;;;;5074905;28;20498;-59
2023/08/06 03:17:31;;;;;;;4.82;2.20;;;;;;;;;;5074770;28;20366;-59
2023/08/06 03:19:57;;;;;;;7.03;1.52;;;;;;;;;;5075062;28;20031;-59
2023/08/06 03:22:23;;;;;;;2.47;1.67;;;;;;;;;;5074754;28;20421;-59
2023/08/06 03:24:51;;;;;;;3.13;1.48;;;;;;;;;;5075175;28;20111;-60
2023/08/06 03:27:17;;;;;;;2.85;1.88;;;;;;;;;;5074539;28;20032;-59
2023/08/06 03:29:43;;;;;;;2.45;1.65;;;;;;;;;;5074673;28;20406;-59
2023/08/06 03:32:09;;;;;;;3.38;1.95;;;;;;;;;;5075059;28;20138;-59
2023/08/06 03:34:35;;;;;;;2.53;1.42;;;;;;;;;;5075095;28;20518;-59
2023/08/06 03:37:01;;;;;;;2.63;1.75;;;;;;;;;;5074083;28;20127;-59
2023/08/06 03:39:27;;;;;;;2.85;1.98;;;;;;;;;;5075048;28;20469;-59
2023/08/06 03:41:53;;;;;;;2.28;1.50;;;;;;;;;;5074381;28;20017;-59
2023/08/06 03:44:19;;;;;;;2.40;1.65;;;;;;;;;;5074914;28;20038;-59
2023/08/06 03:46:44;;;;;;;2.65;1.65;;;;;;;;;;5074045;28;20107;-59
2023/08/06 03:49:10;;;;;;;2.47;1.50;;;;;;;;;;5074595;28;20085;-59
2023/08/06 03:51:36;;;;;;;2.38;1.63;;;;;;;;;;5074205;28;20029;-59
2023/08/06 03:54:02;;;;;;;3.17;1.77;;;;;;;;;;5074253;28;20031;-59
2023/08/06 03:56:28;;;;;;;2.55;1.75;;;;;;;;;;5074608;28;20021;-59
2023/08/06 03:58:54;;;;;;;5.45;2.03;;;;;;;;;;5074232;28;20086;-59
2023/08/06 04:01:20;;;;;;;2.53;1.90;;;;;;;;;;5074594;28;20431;-59
2023/08/06 04:03:46;;;;;;;4.85;1.63;;;;;;;;;;5073970;28;20405;-59
2023/08/06 04:06:13;;;;;;;2.50;1.35;;;;;;;;;;5074028;28;20370;-59
2023/08/06 04:08:39;;;;;;;3.75;2.00;;;;;;;;;;5074261;28;20032;-59
2023/08/06 04:11:05;;;;;;;2.00;1.10;;;;;;;;;;5073611;28;20024;-59
2023/08/06 04:13:31;;;;;;;2.25;1.30;;;;;;;;;;5074441;28;20025;-59
2023/08/06 04:16:01;;;;;;;4.15;1.70;;;;;;;;;;5073905;28;20028;-59
2023/08/06 04:18:27;;;;;;;3.05;1.23;;;;;;;;;;5073458;28;20549;-59
2023/08/06 04:20:55;;;;;;;3.10;1.33;;;;;;;;;;5074357;28;20052;-59
2023/08/06 04:23:21;;;;;;;2.45;1.45;;;;;;;;;;5073776;28;20099;-59
2023/08/06 04:25:47;;;;;;;3.60;1.38;;;;;;;;;;5074023;28;20067;-59
2023/08/06 04:28:13;;;;;;;2.20;1.23;;;;;;;;;;5073300;28;20059;-59
2023/08/06 04:30:39;;;;;;;2.17;1.33;;;;;;;;;;5074260;28;20030;-59
2023/08/06 04:33:04;;;;;;;2.08;1.35;;;;;;;;;;5073074;28;20021;-59
2023/08/06 04:35:30;;;;;;;2.20;1.20;;;;;;;;;;5073491;28;20512;-59
2023/08/06 04:37:56;;;;;;;2.15;1.30;;;;;;;;;;5073546;28;20035;-59
2023/08/06 04:40:22;;;;;;;3.22;1.25;;;;;;;;;;5073658;28;20108;-59
2023/08/06 04:42:48;;;;;;;2.50;1.15;;;;;;;;;;5073179;28;20025;-59
2023/08/06 04:45:14;;;;;;;1.90;0.98;;;;;;;;;;5073555;28;20054;-59
2023/08/06 04:47:40;;;;;;;2.10;1.20;;;;;;;;;;5073438;28;20087;-59
2023/08/06 04:50:06;;;;;;;3.45;1.60;;;;;;;;;;5073555;28;20107;-59
2023/08/06 04:52:32;;;;;;;1.80;1.10;;;;;;;;;;5073486;28;20111;-59
2023/08/06 04:54:58;;;;;;;6.07;1.10;;;;;;;;;;5073106;28;20059;-59
2023/08/06 04:57:24;;;;;;;1.45;0.77;;;;;;;;;;5073127;28;20035;-59
2023/08/06 04:59:51;;;;;;;2.95;1.08;;;;;;;;;;5073956;28;20029;-59
2023/08/06 05:02:17;;;;;;;2.45;0.90;;;;;;;;;;5073303;28;20032;-59
2023/08/06 05:04:43;;;;;;;2.95;1.08;;;;;;;;;;5073374;28;20419;-59
2023/08/06 05:07:09;;;;;;;2.47;1.50;;;;;;;;;;5074100;28;20056;-59
2023/08/06 05:09:37;;;;;;;4.43;1.08;;;;;;;;;;5074114;28;20409;-59
2023/08/06 05:12:04;;;;;;;3.80;0.95;;;;;;;;;;5073024;28;20025;-59
2023/08/06 05:14:30;;;;;;;1.90;0.80;;;;;;;;;;5073311;28;20436;-59
2023/08/06 05:16:56;;;;;;;3.63;1.25;;;;;;;;;;5073264;28;20056;-59
2023/08/06 05:19:22;;;;;;;1.13;0.57;;;;;;;;;;5073803;28;20036;-59
2023/08/06 05:21:48;;;;;;;2.33;1.23;;;;;;;;;;5073158;28;20029;-59
2023/08/06 05:24:14;;;;;;;1.60;0.73;;;;;;;;;;5073205;28;20082;-59
2023/08/06 05:26:40;;;;;;;1.15;0.60;;;;;;;;;;5073752;28;20025;-59
2023/08/06 05:29:06;;;;;;;1.70;0.85;;;;;;;;;;5073363;28;20527;-59
2023/08/06 05:31:32;;;;;;;1.67;0.82;;;;;;;;;;5073326;28;20036;-59
2023/08/06 05:33:57;;;;;;;3.60;1.17;;;;;;;;;;5073284;28;20025;-59
2023/08/06 05:36:23;;;;;;;2.05;0.80;;;;;;;;;;5073060;28;20485;-59
2023/08/06 05:38:49;;;;;;;2.03;0.77;;;;;;;;;;5073085;28;20405;-59
2023/08/06 05:41:15;;;;;;;2.38;0.82;;;;;;;;;;5072994;28;20021;-59
2023/08/06 05:43:41;;;;;;;1.48;0.60;;;;;;;;;;5073010;28;20028;-59
2023/08/06 05:46:07;;;;;;;1.25;0.57;;;;;;;;;;5076545;28;20420;-59
2023/08/06 05:48:33;;;;;;;3.38;1.00;;;;;;;;;;5076588;28;20036;-59
2023/08/06 05:50:59;;;;;;;1.10;0.50;;;;;;;;;;5076897;28;20075;-59
2023/08/06 05:53:25;;;;;;;1.10;0.57;;;;;;;;;;5076845;28;20028;-59
2023/08/06 05:55:51;;;;;;;1.23;0.55;;;;;;;;;;5076716;28;20351;-59
2023/08/06 05:58:17;;;;;;;0.73;0.50;;;;;;;;;;5076470;28;20082;-59
2023/08/06 06:00:43;;;;;;;0.75;0.32;;;;;;;;;;5076995;28;20056;-59
2023/08/06 06:03:09;;;;;;;1.95;0.63;;;;;;;;;;5076326;28;20029;-59
2023/08/06 06:05:38;;;;;;;2.15;0.60;;;;;;;;;;5076328;28;20025;-59
2023/08/06 06:08:04;;;;;;;6.47;0.88;;;;;;;;;;5076175;28;20049;-59
2023/08/06 06:10:30;;;;;;;1.02;0.43;;;;;;;;;;5076837;28;20029;-59
2023/08/06 06:12:56;;;;;;;1.13;0.40;;;;;;;;;;5076257;28;20125;-59
2023/08/06 06:15:22;;;;;;;0.93;0.55;;;;;;;;;;5076081;28;20033;-59
2023/08/06 06:17:48;;;;;;;0.85;0.50;;;;;;;;;;5076141;28;20120;-59
2023/08/06 06:20:14;;;;;;;0.82;0.43;;;;;;;;;;5076099;28;20478;-59
2023/08/06 06:22:40;;;;;;;2.22;0.65;;;;;;;;;;5076311;28;20031;-59
2023/08/06 06:25:06;;;;;;;1.88;0.63;;;;;;;;;;5075728;28;20034;-59
2023/08/06 06:27:32;;;;;;;0.70;0.30;;;;;;;;;;5075905;28;20074;-59
2023/08/06 06:29:58;;;;;;;1.33;0.65;;;;;;;;;;5075908;28;20025;-59
2023/08/06 06:32:24;;;;;;;0.80;0.40;;;;;;;;;;5076074;28;20021;-59
2023/08/06 06:34:50;;;;;;;0.80;0.32;;;;;;;;;;5075604;28;20012;-59
2023/08/06 06:37:16;;;;;;;1.25;0.60;;;;;;;;;;5075494;28;20053;-59
2023/08/06 06:39:42;;;;;;;2.45;0.52;;;;;;;;;;5076535;28;20040;-59
2023/08/06 06:42:08;;;;;;;1.60;0.60;;;;;;;;;;5076378;28;20032;-59
2023/08/06 06:44:34;;;;;;;0.88;0.45;;;;;;;;;;5075684;28;20016;-59
2023/08/06 06:47:00;;;;;;;0.73;0.32;;;;;;;;;;5075600;28;20100;-59
2023/08/06 06:49:26;;;;;;;0.85;0.50;;;;;;;;;;5075560;28;20024;-59
2023/08/06 06:51:52;;;;;;;2.30;0.50;;;;;;;;;;5075257;28;20107;-59
2023/08/06 06:54:17;;;;;;;0.80;0.35;;;;;;;;;;5075465;28;20056;-59
2023/08/06 06:56:43;;;;;;;1.00;0.47;;;;;;;;;;5074759;28;20025;-59
2023/08/06 06:59:09;;;;;;;0.88;0.40;;;;;;;;;;5075863;28;20029;-59
2023/08/06 07:01:35;;;;;;;3.22;0.63;;;;;;;;;;5075822;28;20024;-59
2023/08/06 07:04:04;;;;;;;1.35;0.70;;;;;;;;;;5075186;28;20100;-60
2023/08/06 07:06:30;;;;;;;1.23;0.55;;;;;;;;;;5075685;28;20400;-60
2023/08/06 07:08:56;;;;;;;1.38;0.60;;;;;;;;;;5075361;28;20066;-60
2023/08/06 07:11:22;;;;;;;0.85;0.38;;;;;;;;;;5075084;28;20024;-60
2023/08/06 07:13:50;;;;;;;2.00;0.38;;;;;;;;;;5075307;28;20033;-60
2023/08/06 07:16:16;;;;;;;1.05;0.57;;;;;;;;;;5074732;28;20086;-60
2023/08/06 07:18:42;;;;;;;0.45;0.30;;;;;;;;;;5075794;28;20025;-60
2023/08/06 07:21:08;;;;;;;0.60;0.28;;;;;;;;;;5074886;28;20027;-60
2023/08/06 07:23:34;;;;;;;1.52;0.60;;;;;;;;;;5074562;28;20054;-60
2023/08/06 07:26:00;;;;;;;1.35;0.38;;;;;;;;;;5074406;28;20070;-60
2023/08/06 07:28:26;;;;;;;1.08;0.30;;;;;;;;;;5074355;28;20034;-60
2023/08/06 07:30:52;;;;;;;1.08;0.38;;;;;;;;;;5074720;28;20074;-60
2023/08/06 07:33:18;;;;;;;2.40;0.30;;;;;;;;;;5074542;28;20096;-60
2023/08/06 07:35:44;;;;;;;1.75;0.47;;;;;;;;;;5074418;28;20100;-61
2023/08/06 07:38:10;;;;;;;0.60;0.30;;;;;;;;;;5075282;28;20040;-60
2023/08/06 07:40:37;;;;;;;0.55;0.20;;;;;;;;;;5075332;28;20489;-60
2023/08/06 07:43:03;;;;;;;0.32;0.10;;;;;;;;;;5074520;28;20352;-60
2023/08/06 07:45:32;;;;;;;1.38;0.50;;;;;;;;;;5074603;28;20032;-60
2023/08/06 07:47:58;;;;;;;0.25;0.10;;;;;;;;;;5074215;28;20060;-60
2023/08/06 07:50:24;;;;;;;1.80;0.32;;;;;;;;;;5074468;28;20032;-60
2023/08/06 07:52:50;;;;;;;1.77;0.47;;;;;;;;;;5074109;28;20031;-61
2023/08/06 07:55:16;;;;;;;0.77;0.10;;;;;;;;;;5074339;28;20035;-60
2023/08/06 07:57:42;;;;;;;0.43;0.20;;;;;;;;;;5074100;28;20025;-60
2023/08/06 08:00:09;;;;;;;0.52;0.28;;;;;;;;;;5074077;28;20028;-60
2023/08/06 08:02:35;;;;;;;0.10;0.10;;;;;;;;;;5074081;28;20078;-60
2023/08/06 08:05:01;;;;;;;0.22;0.10;;;;;;;;;;5074065;28;20466;-60
2023/08/06 08:07:30;;;;;;;0.28;0.10;;;;;;;;;;5073696;28;20398;-60
2023/08/06 08:09:56;;;;;;;0.08;0.00;;;;;;;;;;5073722;28;20135;-60
2023/08/06 08:12:22;;;;;;;0.10;0.10;;;;;;;;;;5074478;28;20063;-60
2023/08/06 08:14:48;;;;;;;0.10;0.10;;;;;;;;;;5073906;28;20107;-60
2023/08/06 08:17:14;;;;;;;0.00;0.00;;;;;;;;;;5073896;28;20478;-60
2023/08/06 08:19:40;;;;;;;3.33;0.10;;;;;;;;;;5074064;28;20028;-60
2023/08/06 08:22:06;;;;;;;0.30;0.20;;;;;;;;;;5073655;28;20028;-60
2023/08/06 08:24:32;;;;;;;1.92;0.08;;;;;;;;;;5074476;28;20028;-60
2023/08/06 08:26:58;;;;;;;0.00;0.00;;;;;;;;;;5073751;28;20116;-60
2023/08/06 08:29:24;;;;;;;0.80;0.13;;;;;;;;;;5074379;28;20075;-60
2023/08/06 08:31:50;;;;;;;0.00;0.00;;;;;;;;;;5073598;28;20502;-60
2023/08/06 08:34:17;;;;;;;0.80;0.13;;;;;;;;;;5074098;28;20331;-60
2023/08/06 08:36:43;;;;;;;0.10;0.00;;;;;;;;;;5073775;28;20048;-60
2023/08/06 08:39:09;;;;;;;0.00;0.00;;;;;;;;;;5073779;28;20028;-60
2023/08/06 08:41:37;;;;;;;0.00;0.00;;;;;;;;;;5073260;28;20118;-60
2023/08/06 08:44:04;;;;;;;0.30;0.10;;;;;;;;;;5073504;28;20025;-60
2023/08/06 08:46:35;;;;;;;0.10;0.00;;;;;;;;;;5055363;28;20441;-60
2023/08/06 08:49:02;;;;;;;0.00;0.00;;;;;;;;;;5073910;28;20067;-60
2023/08/06 08:51:28;;;;;;;0.00;0.00;;;;;;;;;;5073167;28;20032;-60
2023/08/06 08:53:58;;;;;;;0.00;0.00;;;;;;;;;;5073748;28;20090;-60
2023/08/06 08:56:25;;;;;;;0.00;0.00;;;;;;;;;;5073974;28;20040;-60
2023/08/06 08:58:53;;;;;;;0.00;0.00;;;;;;;;;;5073664;28;20482;-60
2023/08/06 09:01:19;;;;;;;0.10;0.00;;;;;;;;;;5073770;28;20067;-60
2023/08/06 09:03:46;;;;;;;0.10;0.00;;;;;;;;;;5073539;28;20099;-60
2023/08/06 09:06:12;;;;;;;0.03;0.00;;;;;;;;;;5073655;28;20021;-60
2023/08/06 09:08:42;;;;;;;0.00;0.00;;;;;;;;;;5054811;28;20119;-60
2023/08/06 09:11:11;;;;;;;0.00;0.00;;;;;;;;;;5072729;28;20065;-60
2023/08/06 09:13:38;;;;;;;0.00;0.00;;;;;;;;;;5073098;28;20054;-60
2023/08/06 09:16:04;;;;;;;0.00;0.00;;;;;;;;;;5073799;28;20029;-60
2023/08/06 09:18:31;;;;;;;0.00;0.00;;;;;;;;;;5073118;28;20024;-60
2023/08/06 09:20:57;;;;;;;0.10;0.10;;;;;;;;;;5077086;28;20458;-60
2023/08/06 09:23:30;;;;;;;0.00;0.00;;;;;;;;;;5076926;28;20056;-60
2023/08/06 09:25:57;;;;;;;0.10;0.00;;;;;;;;;;5076902;28;20032;-60
2023/08/06 09:28:24;;;;;;;2.53;0.10;;;;;;;;;;5077077;28;20037;-60
2023/08/06 09:30:50;;;;;;;0.43;0.10;;;;;;;;;;5077524;28;20016;-60
2023/08/06 09:33:20;;;;;;;0.28;0.10;;;;;;;;;;5076859;28;20078;-60
2023/08/06 09:35:47;;;;;;;0.00;0.00;;;;;;;;;;5076406;28;20046;-60
2023/08/06 09:38:13;;;;;;;0.30;0.00;;;;;;;;;;5076814;28;20059;-60
2023/08/06 09:40:40;;;;;;;0.00;0.00;;;;;;;;;;5076931;28;20025;-60
2023/08/06 09:43:06;;;;;;;0.10;0.03;;;;;;;;;;5076645;28;20025;-60
2023/08/06 09:45:33;;;;;;;0.38;0.10;;;;;;;;;;5076644;28;20043;-60
2023/08/06 09:47:59;;;;;;;0.20;0.10;;;;;;;;;;5076462;28;20025;-60
2023/08/06 09:50:32;;;;;;;0.10;0.00;;;;;;;;;;5076594;28;20027;-60
2023/08/06 09:52:58;;;;;;;0.10;0.00;;;;;;;;;;5076527;28;20028;-60
2023/08/06 09:55:26;;;;;;;0.10;0.08;;;;;;;;;;5077022;28;20036;-60
2023/08/06 09:57:52;;;;;;;0.38;0.10;;;;;;;;;;5076703;28;20086;-60
2023/08/06 10:00:18;;;;;;;0.00;0.00;;;;;;;;;;5077312;28;20032;-60
2023/08/06 10:02:44;;;;;;;0.00;0.00;;;;;;;;;;5076450;28;20370;-60
2023/08/06 10:05:10;;;;;;;0.13;0.10;;;;;;;;;;5076482;28;20020;-60
2023/08/06 10:07:39;;;;;;;0.15;0.00;;;;;;;;;;5076159;28;20024;-60
2023/08/06 10:10:05;;;;;;;0.00;0.00;;;;;;;;;;5076506;28;20032;-59
2023/08/06 10:12:33;;;;;;;0.10;0.05;;;;;;;;;;5076019;28;20031;-59
2023/08/06 10:15:01;;;;;;;0.88;0.13;;;;;;;;;;5076094;28;20366;-59
2023/08/06 10:17:28;;;;;;;0.00;0.00;;;;;;;;;;5075699;28;20020;-60
2023/08/06 10:19:58;;;;;;;0.08;0.08;;;;;;;;;;5076149;28;20055;-60
2023/08/06 10:22:24;;;;;;;0.10;0.10;;;;;;;;;;5076337;28;20075;-60
2023/08/06 10:24:50;;;;;;;0.28;0.10;;;;;;;;;;5076074;28;20021;-60
2023/08/06 10:27:22;;;;;;;0.52;0.13;;;;;;;;;;5076435;28;20118;-60
2023/08/06 10:29:52;;;;;;;0.80;0.10;;;;;;;;;;5075906;28;20108;-61
2023/08/06 10:32:18;;;;;;;0.00;0.00;;;;;;;;;;5074723;28;20556;-60
2023/08/06 10:35:00;;;;;;;0.50;0.10;;;;;;;;;;5075712;28;20025;-60
2023/08/06 10:37:36;;;;;;;0.10;0.00;;;;;;;;;;5076527;28;20053;-62
2023/08/06 10:40:03;;;;;;;0.00;0.00;;;;;;;;;;5075517;28;20462;-60
2023/08/06 10:42:29;;;;;;;0.10;0.03;;;;;;;;;;5075613;28;20082;-60
2023/08/06 10:45:14;;;;;;;0.60;0.20;;;;;;;;;;5075881;28;20020;-60
2023/08/06 10:47:41;;;;;;;0.05;0.00;;;;;;;;;;5075515;28;20096;-60
2023/08/06 10:50:08;;;;;;;0.20;0.10;;;;;;;;;;5076045;28;20449;-60
2023/08/06 10:52:34;;;;;;;0.00;0.00;;;;;;;;;;5075803;28;20024;-60
2023/08/06 10:55:00;;;;;;;0.10;0.00;;;;;;;;;;5075315;28;20025;-61
2023/08/06 10:57:26;;;;;;;0.03;0.00;;;;;;;;;;5075718;28;20089;-60
2023/08/06 10:59:52;;;;;;;0.03;0.00;;;;;;;;;;5075423;28;20025;-61
2023/08/06 11:02:18;;;;;;;0.13;0.03;;;;;;;;;;5075335;28;20043;-60
2023/08/06 11:04:44;;;;;;;0.50;0.20;;;;;;;;;;5075752;28;20020;-60
2023/08/06 11:07:10;;;;;;;0.00;0.00;;;;;;;;;;5075227;28;20025;-60
2023/08/06 11:09:37;;;;;;;0.00;0.00;;;;;;;;;;5075122;28;20119;-60
2023/08/06 11:12:06;;;;;;;0.20;0.10;;;;;;;;;;5075337;28;20024;-60
2023/08/06 11:14:32;;;;;;;0.10;0.10;;;;;;;;;;5075016;28;20032;-61
2023/08/06 11:16:58;;;;;;;0.25;0.10;;;;;;;;;;5075410;28;20021;-60
2023/08/06 11:19:24;;;;;;;0.98;0.30;;;;;;;;;;5075738;28;20113;-60
2023/08/06 11:21:51;;;;;;;0.43;0.20;;;;;;;;;;5074813;28;20021;-60
2023/08/06 11:24:17;;;;;;;0.10;0.00;;;;;;;;;;5074875;28;20524;-60
2023/08/06 11:26:44;;;;;;;0.10;0.08;;;;;;;;;;5074759;28;20024;-60
2023/08/06 11:29:10;;;;;;;0.35;0.10;;;;;;;;;;5074678;28;20067;-60
2023/08/06 11:31:37;;;;;;;0.10;0.10;;;;;;;;;;5074837;28;20207;-60
2023/08/06 11:34:03;;;;;;;0.40;0.13;;;;;;;;;;5074606;28;20024;-60
2023/08/06 11:36:30;;;;;;;0.20;0.10;;;;;;;;;;5074997;28;20123;-60
2023/08/06 11:38:56;;;;;;;1.10;0.50;;;;;;;;;;5075016;28;20032;-60
2023/08/06 11:41:22;;;;;;;2.03;0.20;;;;;;;;;;5074596;28;20085;-60
2023/08/06 11:43:48;;;;;;;2.00;0.82;;;;;;;;;;5074126;28;20027;-60
2023/08/06 11:46:14;;;;;;;1.10;0.60;;;;;;;;;;5073998;28;20020;-60
2023/08/06 11:48:51;;;;;;;2.10;0.95;;;;;;;;;;5074734;28;20043;-60
2023/08/06 11:51:17;;;;;;;0.45;0.22;;;;;;;;;;5074532;28;20378;-60
2023/08/06 11:53:47;;;;;;;1.08;0.50;;;;;;;;;;5074160;28;20052;-60
2023/08/06 11:56:13;;;;;;;0.80;0.30;;;;;;;;;;5074136;28;20036;-60
2023/08/06 11:58:41;;;;;;;0.85;0.20;;;;;;;;;;5074696;28;20024;-60
2023/08/06 12:01:07;;;;;;;0.75;0.40;;;;;;;;;;5074576;28;20032;-60
2023/08/06 12:03:33;;;;;;;0.40;0.25;;;;;;;;;;5074573;28;20046;-60
2023/08/06 12:05:59;;;;;;;2.08;0.40;;;;;;;;;;5074019;28;20024;-60
2023/08/06 12:08:27;;;;;;;0.82;0.40;;;;;;;;;;5073571;28;20032;-60
2023/08/06 12:10:53;;;;;;;0.60;0.40;;;;;;;;;;5073958;28;20029;-60
2023/08/06 12:13:19;;;;;;;0.47;0.30;;;;;;;;;;5073643;28;20107;-60
2023/08/06 12:15:46;;;;;;;1.35;0.68;;;;;;;;;;5073551;28;20488;-60
2023/08/06 12:18:11;;;;;;;0.75;0.35;;;;;;;;;;5073858;28;20028;-60
2023/08/06 12:20:38;;;;;;;0.55;0.30;;;;;;;;;;5074171;28;20447;-59
2023/08/06 12:23:04;;;;;;;2.58;0.63;;;;;;;;;;5073914;28;20039;-59
2023/08/06 12:25:30;;;;;;;1.52;0.85;;;;;;;;;;5073772;28;20020;-58
2023/08/06 12:27:56;;;;;;;0.95;0.50;;;;;;;;;;5073659;28;20033;-59
2023/08/06 12:30:22;;;;;;;1.42;0.75;;;;;;;;;;5073662;28;20038;-59
2023/08/06 12:32:48;;;;;;;1.02;0.40;;;;;;;;;;5073602;28;20028;-59
2023/08/06 12:35:14;;;;;;;1.17;0.40;;;;;;;;;;5073657;28;20033;-59
2023/08/06 12:37:40;;;;;;;1.08;0.55;;;;;;;;;;5074726;28;20470;-59
2023/08/06 12:40:06;;;;;;;1.55;0.70;;;;;;;;;;5073579;28;20075;-59
2023/08/06 12:42:32;;;;;;;0.77;0.32;;;;;;;;;;5073546;28;20129;-59
2023/08/06 12:44:59;;;;;;;1.20;0.50;;;;;;;;;;5074077;28;20021;-59
2023/08/06 12:47:24;;;;;;;1.00;0.52;;;;;;;;;;5073507;28;20031;-59
2023/08/06 12:49:50;;;;;;;1.00;0.40;;;;;;;;;;5073632;28;20033;-59
2023/08/06 12:52:19;;;;;;;0.95;0.47;;;;;;;;;;5073437;28;20359;-59
2023/08/06 12:54:46;;;;;;;1.02;0.40;;;;;;;;;;5072922;28;20529;-59
2023/08/06 12:57:12;;;;;;;0.65;0.32;;;;;;;;;;5073417;28;20032;-59
2023/08/06 12:59:38;;;;;;;1.08;0.55;;;;;;;;;;5073880;28;20112;-59
2023/08/06 13:02:04;;;;;;;0.80;0.30;;;;;;;;;;5073366;28;20102;-59
2023/08/06 13:04:30;;;;;;;1.17;0.30;;;;;;;;;;5073361;28;20021;-59
2023/08/06 13:06:56;;;;;;;2.75;0.55;;;;;;;;;;5073334;28;20039;-59
2023/08/06 13:09:22;;;;;;;1.40;0.60;;;;;;;;;;5073819;28;20043;-59
2023/08/06 13:11:50;;;;;;;2.83;0.80;;;;;;;;;;5073203;28;20397;-59
2023/08/06 13:14:16;;;;;;;1.23;0.47;;;;;;;;;;5073789;28;20328;-59
2023/08/06 13:16:42;;;;;;;0.82;0.38;;;;;;;;;;5073732;28;20016;-59
2023/08/06 13:19:09;;;;;;;0.98;0.40;;;;;;;;;;5073970;28;20024;-59
2023/08/06 13:21:35;;;;;;;1.80;0.43;;;;;;;;;;5073999;28;20025;-59
2023/08/06 13:24:02;;;;;;;0.85;0.40;;;;;;;;;;5073112;28;20032;-59
2023/08/06 13:26:29;;;;;;;0.65;0.30;;;;;;;;;;5073089;28;20043;-59
2023/08/06 13:28:55;;;;;;;2.22;1.10;;;;;;;;;;5073274;28;20036;-59
2023/08/06 13:31:21;;;;;;;1.50;0.40;;;;;;;;;;5073590;28;20095;-59
2023/08/06 13:33:48;;;;;;;1.35;0.52;;;;;;;;;;5072918;28;20029;-60
2023/08/06 13:36:14;;;;;;;1.70;0.63;;;;;;;;;;5073341;28;20189;-59
2023/08/06 13:38:40;;;;;;;0.65;0.28;;;;;;;;;;5073811;28;20070;-59
2023/08/06 13:41:06;;;;;;;0.93;0.43;;;;;;;;;;5072900;28;20033;-59
2023/08/06 13:43:32;;;;;;;1.42;0.50;;;;;;;;;;5072831;28;20027;-60
2023/08/06 13:45:57;;;;;;;0.82;0.38;;;;;;;;;;5073290;28;20028;-60
2023/08/06 13:48:23;;;;;;;0.80;0.38;;;;;;;;;;5072776;28;20036;-60
2023/08/06 13:50:49;;;;;;;0.70;0.40;;;;;;;;;;5072978;28;20029;-60
2023/08/06 13:53:15;;;;;;;0.73;0.30;;;;;;;;;;5073038;28;20361;-60
2023/08/06 13:55:41;;;;;;;0.60;0.20;;;;;;;;;;5073118;28;20020;-60
2023/08/06 13:58:08;;;;;;;0.50;0.25;;;;;;;;;;5072721;28;20093;-60
2023/08/06 14:00:34;;;;;;;0.90;0.40;;;;;;;;;;5073309;28;20048;-60
2023/08/06 14:03:00;;;;;;;0.45;0.20;;;;;;;;;;5073578;28;20021;-60
2023/08/06 14:05:26;;;;;;;0.17;0.13;;;;;;;;;;5072653;28;20017;-60
2023/08/06 14:07:52;;;;;;;0.60;0.25;;;;;;;;;;5075985;28;20020;-60
2023/08/06 14:10:18;;;;;;;0.75;0.40;;;;;;;;;;5076264;28;20032;-60
2023/08/06 14:12:44;;;;;;;0.88;0.40;;;;;;;;;;5076252;28;20103;-60
2023/08/06 14:15:11;;;;;;;1.02;0.50;;;;;;;;;;5076678;28;20020;-60
2023/08/06 14:17:37;;;;;;;0.57;0.25;;;;;;;;;;5075891;28;20413;-60
2023/08/06 14:20:04;;;;;;;0.63;0.30;;;;;;;;;;5076451;28;20040;-60
2023/08/06 14:22:31;;;;;;;1.10;0.40;;;;;;;;;;5076563;28;20043;-60
2023/08/06 14:24:57;;;;;;;1.33;0.30;;;;;;;;;;5075980;28;20381;-60
2023/08/06 14:27:23;;;;;;;0.85;0.40;;;;;;;;;;5075913;28;20036;-60
2023/08/06 14:29:49;;;;;;;1.20;0.50;;;;;;;;;;5075720;28;20497;-60
2023/08/06 14:32:17;;;;;;;0.85;0.30;;;;;;;;;;5076013;28;20025;-60
2023/08/06 14:34:43;;;;;;;0.95;0.40;;;;;;;;;;5076152;28;20059;-60
2023/08/06 14:37:09;;;;;;;1.88;0.35;;;;;;;;;;5076499;28;20080;-60
2023/08/06 14:39:35;;;;;;;0.73;0.30;;;;;;;;;;5075833;28;20035;-60